Time;durP1;ratioP1;P1;durP2;ratioP2;P2;SDS_P1;SDS_P2;PMS_P1;PMS_P2;Temp;Humidity;BMP_temperature;BMP_pressure;BME280_temperature;BME280_humidity;BME280_pressure;Samples;Min_cycle;Max_cycle;Signal;HPM_P1;HPM_P2
2023/11/11 00:00:46;;;;;;;43.25;24.23;;;;;;;7.99;92.68;99428.06;6150722;23;20084;-80
2023/11/11 00:03:11;;;;;;;39.47;21.15;;;;;;;7.68;93.90;99420.13;6150728;23;20459;-80
2023/11/11 00:05:37;;;;;;;34.05;20.02;;;;;;;7.79;94.31;99406.19;6150841;23;20009;-80
2023/11/11 00:08:03;;;;;;;37.00;19.42;;;;;;;7.84;94.33;99414.28;6150424;23;20395;-80
2023/11/11 00:10:29;;;;;;;31.98;18.35;;;;;;;7.57;95.52;99387.94;6124254;23;20005;-80
2023/11/11 00:12:54;;;;;;;29.80;18.77;;;;;;;7.94;94.55;99396.03;6150647;23;20036;-80
2023/11/11 00:15:20;;;;;;;35.30;21.73;;;;;;;8.11;94.49;99424.69;6150226;23;20092;-81
2023/11/11 00:17:45;;;;;;;30.30;19.17;;;;;;;8.26;93.60;99422.50;6124012;23;20009;-80
2023/11/11 00:20:16;;;;;;;31.35;18.90;;;;;;;8.46;91.54;99417.03;6124155;23;20014;-80
2023/11/11 00:22:43;;;;;;;30.67;19.25;;;;;;;8.42;91.68;99392.72;6150804;23;20012;-80
2023/11/11 00:25:11;;;;;;;30.92;19.27;;;;;;;8.79;89.95;99406.00;6150409;23;20064;-80
2023/11/11 00:27:36;;;;;;;27.45;17.52;;;;;;;8.61;89.83;99382.09;6150320;23;20056;-80
2023/11/11 00:30:06;;;;;;;27.00;17.73;;;;;;;8.77;89.94;99410.72;6123853;23;20009;-81
2023/11/11 00:32:33;;;;;;;32.70;19.13;;;;;;;8.87;89.17;99423.50;6150764;23;20013;-81
2023/11/11 00:34:59;;;;;;;30.38;19.33;;;;;;;8.83;89.06;99420.47;6123765;23;20016;-80
2023/11/11 00:37:25;;;;;;;36.22;19.98;;;;;;;8.74;89.78;99418.34;6149992;23;20033;-79
2023/11/11 00:39:50;;;;;;;30.13;18.77;;;;;;;8.04;91.82;99382.25;6124275;23;20521;-80
2023/11/11 00:42:16;;;;;;;30.40;19.30;;;;;;;8.49;91.39;99403.28;6150101;23;20013;-78
2023/11/11 00:44:44;;;;;;;31.58;18.75;;;;;;;8.57;90.02;99386.22;6150625;23;20020;-81
2023/11/11 00:47:11;;;;;;;;;;;;;;;8.60;90.34;99407.88;6150260;23;20006;-80
2023/11/11 00:49:37;;;;;;;35.05;18.98;;;;;;;8.35;91.47;99373.34;6150491;23;19950;-80
2023/11/11 00:52:02;;;;;;;36.50;19.67;;;;;;;8.61;90.14;99368.81;6150266;23;20005;-80
2023/11/11 00:54:30;;;;;;;31.65;19.08;;;;;;;8.27;91.69;99340.97;6150794;23;20064;-80
2023/11/11 00:56:56;;;;;;;30.52;19.52;;;;;;;8.27;92.56;99339.09;6123793;23;20009;-79
2023/11/11 00:59:22;;;;;;;30.48;18.33;;;;;;;8.28;93.31;99351.38;6124506;23;20440;-80
2023/11/11 01:01:47;;;;;;;30.55;18.50;;;;;;;8.26;93.30;99324.22;6124430;23;20010;-80
2023/11/11 01:04:13;;;;;;;30.65;18.20;;;;;;;8.25;92.26;99296.00;6150109;23;20012;-80
2023/11/11 01:06:38;;;;;;;31.88;19.77;;;;;;;8.53;91.33;99326.59;6150461;23;20081;-81
2023/11/11 01:09:04;;;;;;;274.77;127.53;;;;;;;8.49;90.85;99289.00;6123909;23;20009;-79
2023/11/11 01:11:29;;;;;;;113.18;54.35;;;;;;;8.56;90.92;99312.84;6150158;23;20411;-80
2023/11/11 01:13:55;;;;;;;78.35;39.88;;;;;;;8.09;94.98;99329.31;6150181;23;20002;-80
2023/11/11 01:16:20;;;;;;;48.13;26.65;;;;;;;8.35;94.02;99336.16;6150303;23;20096;-80
2023/11/11 01:18:46;;;;;;;37.47;21.60;;;;;;;8.17;94.17;99328.19;6124139;23;20009;-81
2023/11/11 01:21:12;;;;;;;38.00;22.85;;;;;;;7.96;94.64;99316.16;6124651;23;20062;-81
2023/11/11 01:23:38;;;;;;;35.15;19.98;;;;;;;8.44;92.62;99340.19;6150496;23;20084;-80
2023/11/11 01:26:04;;;;;;;33.53;20.10;;;;;;;8.26;92.86;99316.25;6150280;23;20080;-80
2023/11/11 01:28:30;;;;;;;36.38;21.27;;;;;;;8.38;92.89;99303.84;6124050;23;20060;-80
2023/11/11 01:30:56;;;;;;;35.97;20.33;;;;;;;8.40;92.18;99317.72;6149854;23;20005;-79
2023/11/11 01:33:22;;;;;;;35.88;20.92;;;;;;;8.45;90.46;99299.28;6150078;23;20006;-80
2023/11/11 01:35:50;;;;;;;33.90;19.42;;;;;;;7.96;94.27;99324.94;6149827;23;20009;-80
2023/11/11 01:38:16;;;;;;;;;;;;;;;7.77;96.38;99315.34;6150573;23;20013;-81
2023/11/11 01:40:41;;;;;;;34.25;19.42;;;;;;;7.65;97.02;99294.00;6123936;23;19904;-80
2023/11/11 01:43:14;;;;;;;31.67;18.02;;;;;;;7.54;97.70;99278.78;6124286;23;20008;-81
2023/11/11 01:45:43;;;;;;;36.88;20.83;;;;;;;7.83;95.93;99274.63;6150246;23;20092;-80
2023/11/11 01:48:10;;;;;;;33.55;18.73;;;;;;;7.63;97.09;99280.94;6149630;23;20093;-81
2023/11/11 01:50:37;;;;;;;32.63;18.48;;;;;;;7.82;96.13;99278.31;6150228;23;20021;-81
2023/11/11 01:53:05;;;;;;;27.88;18.63;;;;;;;7.74;95.05;99244.09;6150589;23;20005;-80
2023/11/11 01:55:31;;;;;;;33.38;19.88;;;;;;;8.17;93.33;99261.78;6123892;23;20013;-80
2023/11/11 01:57:58;;;;;;;35.55;21.20;;;;;;;8.21;92.25;99255.00;6150071;23;20089;-82
2023/11/11 02:00:26;;;;;;;32.92;20.00;;;;;;;8.44;92.16;99302.19;6150861;23;20005;-80
2023/11/11 02:02:53;;;;;;;38.03;21.85;;;;;;;8.47;92.31;99306.22;6150026;23;20005;-80
2023/11/11 02:05:19;;;;;;;36.42;23.55;;;;;;;8.12;94.36;99304.16;6150935;23;20002;-80
2023/11/11 02:07:46;;;;;;;69.28;52.78;;;;;;;7.98;96.25;99303.47;6123931;23;20016;-80
2023/11/11 02:10:13;;;;;;;37.22;23.58;;;;;;;8.02;96.30;99292.19;6123716;23;20443;-80
2023/11/11 02:12:39;;;;;;;39.60;21.63;;;;;;;8.09;94.76;99283.34;6150232;23;20006;-80
2023/11/11 02:15:04;;;;;;;34.78;21.92;;;;;;;8.40;92.90;99306.28;6123861;23;20005;-81
2023/11/11 02:17:30;;;;;;;35.65;20.30;;;;;;;8.26;92.33;99289.69;6149987;23;20001;-81
2023/11/11 02:19:55;;;;;;;32.97;20.77;;;;;;;7.92;95.03;99268.00;6123468;23;20033;-80
2023/11/11 02:22:21;;;;;;;34.67;21.08;;;;;;;8.12;92.95;99259.00;6149897;23;20009;-80
2023/11/11 02:24:49;;;;;;;78.40;49.15;;;;;;;7.94;92.69;99257.97;6150283;23;20491;-82
2023/11/11 02:27:15;;;;;;;33.72;19.63;;;;;;;7.62;96.12;99279.34;6149142;23;20018;-81
2023/11/11 02:29:44;;;;;;;32.30;20.77;;;;;;;7.96;93.09;99271.81;6149515;23;20392;-80
2023/11/11 02:32:09;;;;;;;33.10;19.80;;;;;;;8.16;92.50;99258.31;6123326;23;20015;-81
2023/11/11 02:34:35;;;;;;;199.43;85.10;;;;;;;7.76;92.63;99220.78;6149710;23;20092;-80
2023/11/11 02:37:00;;;;;;;57.92;31.48;;;;;;;7.63;93.78;99217.25;6149694;23;20325;-80
2023/11/11 02:39:26;;;;;;;103.35;48.28;;;;;;;7.58;94.73;99226.91;6148874;23;20036;-82
2023/11/11 02:41:52;;;;;;;51.97;27.90;;;;;;;7.37;96.71;99250.16;6123419;23;20507;-80
2023/11/11 02:44:17;;;;;;;33.90;20.70;;;;;;;7.42;96.28;99225.66;6123482;23;20466;-81
2023/11/11 02:46:43;;;;;;;38.35;20.38;;;;;;;7.88;93.28;99250.88;6123308;23;20002;-81
2023/11/11 02:49:08;;;;;;;32.15;20.02;;;;;;;7.73;92.68;99242.50;6122808;23;20018;-80
2023/11/11 02:51:34;;;;;;;28.80;19.55;;;;;;;7.67;93.03;99264.59;6149273;23;20009;-81
2023/11/11 02:54:00;;;;;;;32.85;18.80;;;;;;;7.75;92.97;99256.34;6149581;23;20006;-81
2023/11/11 02:56:25;;;;;;;40.95;29.77;;;;;;;7.23;94.37;99235.38;6123066;23;20088;-81
2023/11/11 02:58:51;;;;;;;30.75;18.92;;;;;;;7.59;93.77;99271.78;6149081;23;20511;-80
2023/11/11 03:01:16;;;;;;;32.17;22.65;;;;;;;7.19;95.07;99250.09;6123551;23;20009;-80
2023/11/11 03:03:41;;;;;;;28.50;17.27;;;;;;;6.67;100.00;99260.88;6123126;23;20510;-80
2023/11/11 03:06:07;;;;;;;30.67;17.95;;;;;;;7.09;96.88;99279.78;6123815;23;20006;-81
2023/11/11 03:08:36;;;;;;;35.83;17.58;;;;;;;7.27;95.05;99275.56;6148753;23;20015;-81
2023/11/11 03:11:05;;;;;;;29.10;17.10;;;;;;;7.17;96.66;99291.94;6149715;23;20005;-80
2023/11/11 03:13:31;;;;;;;29.83;17.27;;;;;;;7.08;95.65;99248.97;6123436;23;20013;-80
2023/11/11 03:15:56;;;;;;;28.73;17.25;;;;;;;6.52;100.00;99265.63;6149357;23;20009;-80
2023/11/11 03:18:22;;;;;;;29.33;16.88;;;;;;;6.61;100.00;99256.44;6149137;23;20014;-80
2023/11/11 03:20:47;;;;;;;31.15;19.00;;;;;;;6.93;99.23;99249.31;6149454;23;20056;-81
2023/11/11 03:23:13;;;;;;;31.75;18.48;;;;;;;6.45;100.00;99278.94;6124308;23;20033;-80
2023/11/11 03:25:38;;;;;;;29.88;16.67;;;;;;;6.43;100.00;99239.41;6150828;23;20013;-80
2023/11/11 03:28:04;;;;;;;124.50;71.75;;;;;;;6.84;98.91;99254.06;6150698;23;20056;-80
2023/11/11 03:30:30;;;;;;;64.15;36.85;;;;;;;6.59;100.00;99239.94;6151406;23;20629;-80
2023/11/11 03:32:55;;;;;;;28.08;17.83;;;;;;;7.03;98.75;99243.53;6151837;23;20064;-80
2023/11/11 03:35:21;;;;;;;26.95;17.65;;;;;;;7.00;97.34;99201.53;6151533;23;20376;-80
2023/11/11 03:37:47;;;;;;;30.38;18.67;;;;;;;6.55;100.00;99204.31;6151457;23;20009;-81
2023/11/11 03:40:12;;;;;;;29.30;16.13;;;;;;;6.54;100.00;99203.50;6151181;23;20398;-81
2023/11/11 03:42:38;;;;;;;27.17;16.92;;;;;;;6.46;100.00;99189.69;6125201;23;20395;-81
2023/11/11 03:45:04;;;;;;;31.00;18.48;;;;;;;6.28;100.00;99191.22;6151539;23;20015;-81
2023/11/11 03:47:30;;;;;;;28.08;17.42;;;;;;;6.65;100.00;99188.75;6150391;23;20486;-81
2023/11/11 03:49:55;;;;;;;28.55;17.88;;;;;;;6.71;99.25;99195.84;6150421;23;20072;-80
2023/11/11 03:52:21;;;;;;;31.95;18.77;;;;;;;6.96;97.87;99184.44;6150942;23;20009;-80
2023/11/11 03:54:47;;;;;;;29.85;17.90;;;;;;;6.99;96.99;99168.09;6124859;23;20029;-80
2023/11/11 03:57:12;;;;;;;29.45;18.60;;;;;;;6.90;96.96;99167.56;6150823;23;20012;-80
2023/11/11 03:59:39;;;;;;;30.77;18.70;;;;;;;6.97;96.42;99183.41;6151116;23;20088;-81
2023/11/11 04:02:05;;;;;;;31.45;19.08;;;;;;;6.79;97.53;99179.66;6125006;23;20009;-80
2023/11/11 04:04:32;;;;;;;32.55;19.00;;;;;;;6.66;99.93;99168.34;6151622;23;20013;-80
2023/11/11 04:06:58;;;;;;;30.35;18.05;;;;;;;6.80;99.05;99191.06;6124733;23;20013;-82
2023/11/11 04:09:24;;;;;;;31.85;18.55;;;;;;;6.92;97.49;99162.03;6150231;23;20097;-81
2023/11/11 04:11:49;;;;;;;36.50;19.48;;;;;;;6.92;96.43;99162.03;6124454;23;20005;-80
2023/11/11 04:14:15;;;;;;;33.78;18.25;;;;;;;6.70;97.65;99165.09;6124736;23;20057;-81
2023/11/11 04:16:43;;;;;;;34.72;18.70;;;;;;;6.33;100.00;99170.19;6151255;23;20040;-81
2023/11/11 04:19:08;;;;;;;;;;;;;;;6.65;100.00;99186.09;6151008;23;20002;-80
2023/11/11 04:21:34;;;;;;;49.97;32.72;;;;;;;6.22;100.00;99162.94;6151008;23;19905;-80
2023/11/11 04:23:59;;;;;;;36.30;21.52;;;;;;;6.41;100.00;99175.25;6151105;23;20428;-80
2023/11/11 04:26:25;;;;;;;36.35;22.08;;;;;;;6.44;98.68;99145.69;6124561;23;20013;-80
2023/11/11 04:28:50;;;;;;;42.60;28.40;;;;;;;6.09;100.00;99157.72;6150812;23;20009;-80
2023/11/11 04:31:17;;;;;;;60.67;41.85;;;;;;;6.32;100.00;99152.69;6124009;23;20005;-80
2023/11/11 04:33:43;;;;;;;38.60;22.67;;;;;;;6.67;99.45;99180.59;6149989;23;20006;-80
2023/11/11 04:36:08;;;;;;;35.70;20.48;;;;;;;6.67;98.12;99165.50;6123728;23;20020;-81
2023/11/11 04:38:37;;;;;;;34.45;18.70;;;;;;;6.77;95.84;99155.22;6150130;23;20088;-81
2023/11/11 04:41:04;;;;;;;;;;;;;;;6.82;95.99;99155.41;6150331;23;20001;-80
2023/11/11 04:43:29;;;;;;;32.63;20.07;;;;;;;6.46;97.50;99136.69;6150212;23;19908;-80
2023/11/11 04:45:55;;;;;;;37.33;26.00;;;;;;;6.37;97.09;99123.72;6149782;23;20240;-80
2023/11/11 04:48:21;;;;;;;37.03;25.30;;;;;;;6.02;99.11;99132.09;6149993;23;20017;-81
2023/11/11 04:50:46;;;;;;;37.67;23.27;;;;;;;6.01;100.00;99127.84;6124017;23;20052;-81
2023/11/11 04:53:12;;;;;;;34.22;20.40;;;;;;;6.28;97.82;99148.06;6124364;23;20010;-81
2023/11/11 04:55:37;;;;;;;32.80;20.55;;;;;;;6.31;97.24;99172.25;6124269;23;20016;-81
2023/11/11 04:58:03;;;;;;;43.97;22.95;;;;;;;6.47;96.32;99191.31;6150290;23;20072;-80
2023/11/11 05:00:29;;;;;;;37.33;19.67;;;;;;;6.08;98.05;99198.44;6123960;23;20001;-80
2023/11/11 05:02:55;;;;;;;35.13;20.90;;;;;;;5.91;100.00;99177.72;6150178;23;20017;-80
2023/11/11 05:05:20;;;;;;;29.63;17.48;;;;;;;5.57;100.00;99153.22;6150170;23;20001;-80
2023/11/11 05:07:46;;;;;;;31.73;19.23;;;;;;;5.87;99.46;99142.13;6149832;23;20012;-80
2023/11/11 05:10:16;;;;;;;34.53;19.38;;;;;;;5.61;100.00;99141.19;6149247;23;20009;-80
2023/11/11 05:12:41;;;;;;;37.78;19.67;;;;;;;5.35;100.00;99146.56;6123401;23;20009;-81
2023/11/11 05:15:14;;;;;;;33.53;19.27;;;;;;;5.55;100.00;99151.81;6124179;23;20020;-81
2023/11/11 05:17:44;;;;;;;34.65;19.08;;;;;;;6.15;100.00;99159.50;6149992;23;20024;-80
2023/11/11 05:20:10;;;;;;;31.38;18.95;;;;;;;5.93;100.00;99151.06;6149830;23;20016;-81
2023/11/11 05:22:37;;;;;;;30.98;19.13;;;;;;;5.33;100.00;99145.97;6150052;23;20447;-81
2023/11/11 05:25:04;;;;;;;31.00;18.10;;;;;;;5.64;100.00;99177.03;6123589;23;20013;-80
2023/11/11 05:27:30;;;;;;;36.65;17.45;;;;;;;5.82;98.74;99147.22;6149761;23;20008;-80
2023/11/11 05:29:56;;;;;;;31.08;19.25;;;;;;;5.88;99.04;99158.81;6149887;23;20017;-80
2023/11/11 05:32:22;;;;;;;31.17;19.33;;;;;;;6.03;97.50;99160.19;6149529;23;20009;-80
2023/11/11 05:34:47;;;;;;;37.63;20.10;;;;;;;6.08;98.98;99166.69;6123491;23;20721;-80
2023/11/11 05:37:13;;;;;;;35.88;20.45;;;;;;;6.20;99.25;99175.59;6123813;23;20005;-81
2023/11/11 05:39:38;;;;;;;33.70;19.98;;;;;;;5.98;99.16;99175.88;6123559;23;20044;-82
2023/11/11 05:42:03;;;;;;;40.05;22.63;;;;;;;5.94;100.00;99187.88;6123785;23;20008;-81
2023/11/11 05:44:29;;;;;;;34.53;20.27;;;;;;;5.67;100.00;99170.50;6149770;23;20336;-81
2023/11/11 05:46:54;;;;;;;35.85;20.35;;;;;;;5.69;100.00;99179.84;6149219;23;20009;-80
2023/11/11 05:49:20;;;;;;;31.33;19.63;;;;;;;5.56;100.00;99158.75;6149779;23;20072;-80
2023/11/11 05:51:46;;;;;;;40.40;21.25;;;;;;;5.88;100.00;99175.47;6123674;23;20013;-80
2023/11/11 05:54:12;;;;;;;36.22;21.73;;;;;;;6.04;100.00;99137.97;6152296;23;20045;-79
2023/11/11 05:56:40;;;;;;;37.38;20.10;;;;;;;5.73;100.00;99140.56;6149883;23;20009;-80
2023/11/11 05:59:06;;;;;;;37.38;21.27;;;;;;;5.81;100.00;99124.44;6149942;23;20041;-81
2023/11/11 06:01:32;;;;;;;37.90;22.08;;;;;;;5.78;100.00;99140.72;6149818;23;20060;-80
2023/11/11 06:03:57;;;;;;;36.75;20.30;;;;;;;5.96;100.00;99148.81;6150307;23;20084;-80
2023/11/11 06:06:23;;;;;;;37.35;21.35;;;;;;;6.13;100.00;99132.44;6149991;23;20403;-80
2023/11/11 06:08:49;;;;;;;37.05;21.42;;;;;;;6.34;100.00;99124.16;6124446;23;20008;-80
2023/11/11 06:11:15;;;;;;;47.80;26.05;;;;;;;6.29;100.00;99099.34;6156334;23;20006;-81
2023/11/11 06:13:41;;;;;;;127.97;84.90;;;;;;;6.39;100.00;99124.31;6177680;23;19998;-81
2023/11/11 06:16:07;;;;;;;63.50;37.75;;;;;;;6.26;100.00;99123.63;6178487;23;20029;-83
2023/11/11 06:18:32;;;;;;;40.00;23.55;;;;;;;6.53;100.00;99129.53;6178641;23;20005;-83
2023/11/11 06:20:59;;;;;;;36.80;22.83;;;;;;;6.84;100.00;99112.75;6178348;23;20032;-83
2023/11/11 06:23:25;;;;;;;45.13;27.10;;;;;;;7.05;100.00;99111.56;6152421;23;20021;-82
2023/11/11 06:25:50;;;;;;;37.88;21.90;;;;;;;6.74;100.00;99125.69;6178718;23;20009;-83
2023/11/11 06:28:16;;;;;;;35.35;22.85;;;;;;;6.58;100.00;99153.56;6152329;23;19992;-83
2023/11/11 06:30:42;;;;;;;38.53;22.63;;;;;;;6.62;100.00;99157.41;6132705;23;20017;-82
2023/11/11 06:33:08;;;;;;;37.38;22.27;;;;;;;6.59;100.00;99190.41;6132859;23;20013;-81
2023/11/11 06:35:34;;;;;;;40.17;23.13;;;;;;;6.94;100.00;99213.00;6130754;23;20009;-81
2023/11/11 06:37:59;;;;;;;40.25;24.23;;;;;;;7.13;100.00;99206.72;6131367;23;20010;-82
2023/11/11 06:40:26;;;;;;;44.20;27.63;;;;;;;7.38;100.00;99219.16;6130756;23;20061;-82
2023/11/11 06:42:55;;;;;;;42.83;26.85;;;;;;;7.32;100.00;99198.81;6157081;23;20447;-81
2023/11/11 06:45:20;;;;;;;41.00;27.48;;;;;;;7.10;100.00;99185.94;6129414;23;20013;-81
2023/11/11 06:47:46;;;;;;;40.50;25.38;;;;;;;7.15;100.00;99190.59;6155586;23;20001;-82
2023/11/11 06:50:14;;;;;;;44.50;26.63;;;;;;;7.28;100.00;99171.09;6153843;23;20097;-81
2023/11/11 06:52:40;;;;;;;;;;;;;;;7.55;100.00;99183.06;6153746;23;20008;-83
2023/11/11 06:55:09;;;;;;;49.25;32.25;;;;;;;7.35;100.00;99137.34;6151909;23;19913;-80
2023/11/11 06:57:34;;;;;;;54.28;39.88;;;;;;;7.28;100.00;99131.31;6151307;23;20018;-81
2023/11/11 07:00:00;;;;;;;71.22;50.25;;;;;;;7.14;100.00;99115.53;6151214;23;20006;-81
2023/11/11 07:02:26;;;;;;;58.20;33.45;;;;;;;7.21;100.00;99136.69;6124695;23;20006;-80
2023/11/11 07:04:55;;;;;;;43.78;28.48;;;;;;;7.42;100.00;99148.72;6152450;23;20006;-81
2023/11/11 07:07:27;;;;;;;39.17;26.15;;;;;;;7.60;100.00;99147.88;6150397;23;20016;-81
2023/11/11 07:09:52;;;;;;;42.15;25.23;;;;;;;7.76;100.00;99120.75;6150368;23;20132;-82
2023/11/11 07:12:21;;;;;;;49.13;37.42;;;;;;;7.85;100.00;99145.97;6125082;23;20037;-83
2023/11/11 07:14:46;;;;;;;61.17;48.58;;;;;;;7.97;100.00;99127.44;6124917;23;20029;-82
2023/11/11 07:17:12;;;;;;;78.10;66.57;;;;;;;7.59;100.00;99098.53;6150465;23;20490;-80
2023/11/11 07:19:38;;;;;;;68.30;52.45;;;;;;;7.98;100.00;99117.63;6150302;23;20561;-83
2023/11/11 07:22:03;;;;;;;102.18;70.82;;;;;;;7.98;100.00;99112.31;6149374;23;20006;-80
2023/11/11 07:24:29;;;;;;;59.72;43.95;;;;;;;7.90;100.00;99115.28;6123283;23;20002;-80
2023/11/11 07:26:54;;;;;;;41.53;26.75;;;;;;;8.12;100.00;99118.25;6123665;23;20068;-82
2023/11/11 07:29:24;;;;;;;67.90;47.10;;;;;;;8.16;100.00;99122.88;6122998;23;20075;-81
2023/11/11 07:31:50;;;;;;;76.32;53.75;;;;;;;8.10;100.00;99107.84;6122977;23;20032;-81
2023/11/11 07:34:16;;;;;;;53.28;40.00;;;;;;;7.94;100.00;99106.63;6149217;23;20060;-81
2023/11/11 07:36:42;;;;;;;36.95;23.40;;;;;;;8.08;100.00;99111.78;6149659;23;20017;-81
2023/11/11 07:39:08;;;;;;;37.58;23.55;;;;;;;8.14;100.00;99124.16;6149905;23;20009;-81
2023/11/11 07:41:33;;;;;;;40.40;24.73;;;;;;;7.97;100.00;99116.81;6148861;23;20061;-81
2023/11/11 07:44:06;;;;;;;40.63;25.17;;;;;;;7.90;100.00;99129.34;6148987;23;20005;-81
2023/11/11 07:46:32;;;;;;;41.08;26.70;;;;;;;8.27;100.00;99137.22;6149403;23;20010;-82
2023/11/11 07:48:59;;;;;;;40.13;25.73;;;;;;;7.88;100.00;99128.78;6149770;23;20597;-82
2023/11/11 07:51:25;;;;;;;42.45;25.67;;;;;;;7.94;100.00;99127.06;6123125;23;20013;-82
2023/11/11 07:53:51;;;;;;;46.33;27.70;;;;;;;8.04;100.00;99117.53;6123074;23;20204;-81
2023/11/11 07:56:17;;;;;;;41.97;26.45;;;;;;;8.08;100.00;99146.31;6123692;23;20002;-81
2023/11/11 07:58:42;;;;;;;44.72;28.83;;;;;;;7.94;100.00;99157.06;6149003;23;20005;-82
2023/11/11 08:01:08;;;;;;;44.25;27.33;;;;;;;7.77;100.00;99167.50;6149177;23;20005;-81
2023/11/11 08:03:34;;;;;;;46.90;27.13;;;;;;;7.79;100.00;99152.16;6149922;23;20006;-81
2023/11/11 08:06:02;;;;;;;48.60;28.35;;;;;;;7.82;100.00;99148.25;6150360;23;20044;-82
2023/11/11 08:08:29;;;;;;;45.72;30.38;;;;;;;7.47;100.00;99143.56;6125102;23;20454;-81
2023/11/11 08:10:55;;;;;;;46.65;29.90;;;;;;;7.73;100.00;99165.53;6126463;23;20013;-82
2023/11/11 08:13:21;;;;;;;48.42;30.50;;;;;;;7.73;100.00;99146.94;6126305;23;20013;-82
2023/11/11 08:15:46;;;;;;;48.33;31.02;;;;;;;7.64;100.00;99133.97;6125649;23;20076;-82
2023/11/11 08:18:12;;;;;;;45.35;28.75;;;;;;;7.71;100.00;99138.41;6152315;23;20063;-81
2023/11/11 08:20:37;;;;;;;47.13;29.25;;;;;;;7.99;100.00;99146.59;6126683;23;20009;-82
2023/11/11 08:23:03;;;;;;;52.40;33.00;;;;;;;7.86;100.00;99133.50;6152316;23;20032;-81
2023/11/11 08:25:28;;;;;;;58.22;36.05;;;;;;;7.78;100.00;99128.50;6126619;23;20005;-82
2023/11/11 08:27:55;;;;;;;58.95;37.88;;;;;;;7.87;100.00;99144.91;6126103;23;20006;-81
2023/11/11 08:30:22;;;;;;;62.38;38.28;;;;;;;7.71;100.00;99133.09;6126399;23;20012;-81
2023/11/11 08:32:48;;;;;;;63.80;38.22;;;;;;;7.88;100.00;99123.47;6126620;23;20448;-79
2023/11/11 08:35:15;;;;;;;62.13;37.75;;;;;;;7.93;100.00;99141.41;6126327;23;20095;-82
2023/11/11 08:37:45;;;;;;;63.47;38.13;;;;;;;8.14;100.00;99169.31;6152671;23;20005;-82
2023/11/11 08:40:12;;;;;;;58.50;37.15;;;;;;;8.13;100.00;99136.63;6152458;23;20008;-81
2023/11/11 08:42:39;;;;;;;61.58;35.25;;;;;;;8.36;100.00;99141.19;6126265;23;20005;-81
2023/11/11 08:45:11;;;;;;;55.92;33.85;;;;;;;8.25;100.00;99115.41;6126002;23;20010;-80
2023/11/11 08:47:37;;;;;;;55.50;32.92;;;;;;;8.39;100.00;99122.13;6151599;23;20002;-81
2023/11/11 08:50:06;;;;;;;53.17;33.83;;;;;;;8.22;100.00;99082.13;6152159;23;20022;-81
2023/11/11 08:52:33;;;;;;;53.67;33.15;;;;;;;8.33;100.00;99039.88;6151804;23;20005;-81
2023/11/11 08:54:59;;;;;;;55.63;34.17;;;;;;;8.54;100.00;99062.47;6152190;23;20013;-81
2023/11/11 08:57:25;;;;;;;58.70;36.53;;;;;;;8.54;100.00;99076.56;6125967;23;20261;-80
2023/11/11 08:59:51;;;;;;;63.72;39.28;;;;;;;8.48;100.00;99047.44;6151734;23;20436;-82
2023/11/11 09:02:17;;;;;;;57.63;35.88;;;;;;;8.56;100.00;99063.88;6151652;23;20455;-79
2023/11/11 09:04:42;;;;;;;54.75;34.33;;;;;;;8.49;100.00;99070.31;6151231;23;20001;-81
2023/11/11 09:07:08;;;;;;;52.70;32.25;;;;;;;8.17;100.00;99078.53;6125846;23;20013;-79
2023/11/11 09:09:34;;;;;;;53.72;31.88;;;;;;;8.03;100.00;99084.06;6125790;23;20005;-80
2023/11/11 09:12:01;;;;;;;48.92;31.73;;;;;;;8.40;100.00;99080.47;6125774;23;20009;-81
2023/11/11 09:14:27;;;;;;;52.15;31.40;;;;;;;8.33;100.00;99101.78;6152176;23;20051;-80
2023/11/11 09:16:52;;;;;;;52.38;31.80;;;;;;;8.50;100.00;99062.13;6125939;23;20006;-80
2023/11/11 09:19:18;;;;;;;52.40;31.38;;;;;;;8.45;100.00;99097.34;6151801;23;20479;-81
2023/11/11 09:21:43;;;;;;;49.25;30.88;;;;;;;8.70;100.00;99071.59;6151930;23;20024;-81
2023/11/11 09:24:09;;;;;;;50.15;30.13;;;;;;;8.51;100.00;99060.28;6151895;23;20352;-81
2023/11/11 09:26:35;;;;;;;54.55;31.73;;;;;;;8.45;100.00;99016.81;6152209;23;20079;-82
2023/11/11 09:29:00;;;;;;;49.75;28.55;;;;;;;8.40;100.00;99033.44;6125709;23;20350;-81
2023/11/11 09:31:29;;;;;;;47.70;28.92;;;;;;;8.49;100.00;99025.16;6152095;23;20510;-81
2023/11/11 09:34:00;;;;;;;45.85;27.75;;;;;;;8.48;100.00;99005.75;6151653;23;20037;-81
2023/11/11 09:36:29;;;;;;;43.28;26.92;;;;;;;8.27;100.00;99004.41;6126150;23;20062;-81
2023/11/11 09:38:55;;;;;;;48.85;29.15;;;;;;;8.07;100.00;98956.13;6125701;23;20060;-80
2023/11/11 09:41:21;;;;;;;49.75;32.83;;;;;;;7.88;100.00;98825.34;6126261;23;20005;-83
2023/11/11 09:43:47;;;;;;;52.10;30.63;;;;;;;7.52;100.00;98767.00;6151625;23;20403;-81
2023/11/11 09:46:15;;;;;;;51.97;32.42;;;;;;;7.70;100.00;98807.69;6125611;23;20021;-81
2023/11/11 09:48:41;;;;;;;52.10;32.10;;;;;;;7.56;100.00;98792.03;6125239;23;20017;-79
2023/11/11 09:51:09;;;;;;;53.67;33.60;;;;;;;8.00;100.00;98861.47;6151594;23;20353;-81
2023/11/11 09:53:37;;;;;;;56.47;34.78;;;;;;;7.78;100.00;98836.53;6125492;23;20044;-84
2023/11/11 09:56:03;;;;;;;54.55;30.33;;;;;;;7.84;100.00;98883.41;6125592;23;20013;-81
2023/11/11 09:58:31;;;;;;;51.60;32.45;;;;;;;7.94;100.00;98875.66;6152053;23;20032;-81
2023/11/11 10:00:57;;;;;;;51.30;32.42;;;;;;;8.21;100.00;98905.25;6151765;23;20574;-81
2023/11/11 10:03:23;;;;;;;52.25;34.40;;;;;;;8.26;100.00;98877.97;6125761;23;20439;-81
2023/11/11 10:05:48;;;;;;;53.85;32.92;;;;;;;8.30;100.00;98871.16;6125869;23;20016;-84
2023/11/11 10:08:14;;;;;;;60.95;34.90;;;;;;;8.52;100.00;98865.25;6125697;23;20067;-83
2023/11/11 10:10:41;;;;;;;53.13;32.15;;;;;;;8.80;100.00;98881.22;6125576;23;20010;-83
2023/11/11 10:13:06;;;;;;;58.58;36.90;;;;;;;8.98;100.00;98892.75;6125436;23;20043;-83
2023/11/11 10:15:32;;;;;;;86.32;53.28;;;;;;;8.71;100.00;98866.72;6124835;23;20009;-80
2023/11/11 10:18:04;;;;;;;54.20;32.15;;;;;;;8.62;100.00;98868.09;6125016;23;20567;-81
2023/11/11 10:20:30;;;;;;;62.70;36.40;;;;;;;8.81;100.00;98885.50;6151841;23;20009;-81
2023/11/11 10:22:58;;;;;;;56.65;36.53;;;;;;;8.92;100.00;98896.34;6152133;23;20136;-81
2023/11/11 10:25:23;;;;;;;60.10;34.70;;;;;;;8.81;100.00;98829.69;6151786;23;20005;-81
2023/11/11 10:27:50;;;;;;;60.40;38.38;;;;;;;8.66;100.00;98797.50;6151842;23;20072;-80
2023/11/11 10:30:25;;;;;;;65.45;39.40;;;;;;;8.78;100.00;98830.16;6125556;23;20013;-81
2023/11/11 10:32:56;;;;;;;59.75;35.97;;;;;;;9.22;100.00;98827.75;6123842;23;20014;-82
2023/11/11 10:35:24;;;;;;;58.53;36.75;;;;;;;9.14;100.00;98849.44;6124242;23;20459;-85
2023/11/11 10:37:50;;;;;;;58.38;34.40;;;;;;;8.80;100.00;98833.38;6150925;23;20076;-84
2023/11/11 10:40:17;;;;;;;91.20;51.40;;;;;;;9.07;100.00;98847.94;6150414;23;20089;-84
2023/11/11 10:42:47;;;;;;;71.20;43.63;;;;;;;9.10;100.00;98821.69;6125426;23;20032;-84
2023/11/11 10:45:15;;;;;;;67.93;42.38;;;;;;;9.37;100.00;98829.06;6125956;23;20399;-83
2023/11/11 10:47:45;;;;;;;61.97;37.05;;;;;;;9.71;100.00;98874.31;6125476;23;20009;-84
2023/11/11 10:50:13;;;;;;;58.33;36.88;;;;;;;9.43;100.00;98865.34;6125495;23;20013;-87
2023/11/11 10:52:40;;;;;;;63.25;39.33;;;;;;;9.45;100.00;98828.66;6126006;23;20017;-86
2023/11/11 10:55:10;;;;;;;68.65;43.30;;;;;;;9.74;100.00;98809.94;6125669;23;20447;-86
2023/11/11 10:57:38;;;;;;;100.95;51.28;;;;;;;9.60;100.00;98814.78;6126504;23;20016;-87
2023/11/11 11:00:16;;;;;;;81.25;48.72;;;;;;;9.23;100.00;98780.66;6126104;23;20013;-85
2023/11/11 11:02:43;;;;;;;;;;;;;;;9.38;100.00;98807.53;6126499;23;20013;-84
2023/11/11 11:05:11;;;;;;;56.88;36.63;;;;;;;9.68;100.00;98800.25;6125756;23;19987;-85
2023/11/11 11:07:41;;;;;;;;;;;;;;;10.01;100.00;98789.56;6126642;23;21944;-84
2023/11/11 11:10:19;;;;;;;58.38;38.33;;;;;;;10.92;100.00;98772.19;6125681;23;19912;-88
2023/11/11 11:12:58;;;;;;;49.90;31.75;;;;;;;10.89;100.00;98761.22;6126024;23;20020;-85
2023/11/11 11:15:26;;;;;;;60.00;38.67;;;;;;;11.10;100.00;98744.34;6125667;23;20037;-88
2023/11/11 11:17:52;;;;;;;48.80;29.25;;;;;;;11.34;100.00;98734.13;6126013;23;20009;-88